Time;durP1;ratioP1;P1;durP2;ratioP2;P2;SDS_P1;SDS_P2;PMS_P1;PMS_P2;Temp;Humidity;BMP_temperature;BMP_pressure;BME280_temperature;BME280_humidity;BME280_pressure;Samples;Min_cycle;Max_cycle;Signal;HPM_P1;HPM_P2
2022/12/16 00:00:03;;;;;;;64.43;38.80;;;-1.10;99.90;;;;;;5051522;28;20037;-76
2022/12/16 00:02:28;;;;;;;60.33;40.15;;;-1.10;99.90;;;;;;5056451;28;20111;-76
2022/12/16 00:04:56;;;;;;;59.10;39.95;;;-1.10;99.90;;;;;;5058639;28;20100;-75
2022/12/16 00:07:22;;;;;;;59.75;37.08;;;-1.00;99.90;;;;;;5030706;28;20131;-75
2022/12/16 00:09:48;;;;;;;56.72;37.45;;;-1.00;99.90;;;;;;5064271;28;20395;-75
2022/12/16 00:12:13;;;;;;;59.17;38.58;;;-1.00;99.90;;;;;;5069843;28;20079;-75
2022/12/16 00:14:39;;;;;;;56.42;38.08;;;-1.00;99.90;;;;;;5062868;28;20388;-76
2022/12/16 00:17:05;;;;;;;58.47;37.47;;;-1.00;99.90;;;;;;5073464;28;20425;-76
2022/12/16 00:19:30;;;;;;;59.95;38.65;;;-1.00;99.90;;;;;;5068103;28;20151;-75
2022/12/16 00:21:56;;;;;;;55.63;37.97;;;-1.00;99.90;;;;;;5061609;28;20051;-75
2022/12/16 00:24:22;;;;;;;55.40;38.47;;;-0.90;99.90;;;;;;5045449;28;20051;-75
2022/12/16 00:26:47;;;;;;;65.25;39.40;;;-0.90;99.90;;;;;;5044572;28;21460;-75
2022/12/16 00:29:13;;;;;;;55.08;37.88;;;-0.90;99.90;;;;;;5041883;28;20450;-75
2022/12/16 00:31:39;;;;;;;55.45;37.80;;;-0.90;99.90;;;;;;5054628;28;20044;-75
2022/12/16 00:34:04;;;;;;;54.35;37.65;;;-0.90;99.90;;;;;;5039202;28;20056;-75
2022/12/16 00:36:30;;;;;;;59.97;37.42;;;-0.90;99.90;;;;;;5048624;28;20068;-75
2022/12/16 00:38:59;;;;;;;58.60;38.30;;;-0.90;99.90;;;;;;5049660;28;20044;-75
2022/12/16 00:41:24;;;;;;;56.10;35.88;;;-0.90;99.90;;;;;;5067790;28;20485;-75
2022/12/16 00:43:50;;;;;;;57.17;38.72;;;-1.00;99.90;;;;;;5067834;28;20387;-74
2022/12/16 00:46:16;;;;;;;57.28;36.67;;;-0.90;99.90;;;;;;5070370;28;20056;-74
2022/12/16 00:48:42;;;;;;;57.10;37.38;;;-0.90;99.90;;;;;;5057775;28;20383;-74
2022/12/16 00:51:07;;;;;;;59.17;38.13;;;-0.90;99.90;;;;;;5071732;28;20044;-74
2022/12/16 00:53:34;;;;;;;58.25;38.42;;;-0.90;99.90;;;;;;5051540;28;20105;-74
2022/12/16 00:56:04;;;;;;;55.50;37.72;;;-0.90;99.90;;;;;;5070296;28;20044;-74
2022/12/16 00:58:30;;;;;;;57.50;36.97;;;-0.90;99.90;;;;;;5062844;28;20394;-74
2022/12/16 01:00:56;;;;;;;56.55;38.33;;;-0.90;99.90;;;;;;5071418;28;20040;-74
2022/12/16 01:03:21;;;;;;;57.85;38.58;;;-0.90;99.90;;;;;;5066379;28;20079;-74
2022/12/16 01:05:47;;;;;;;57.83;38.67;;;-0.90;99.90;;;;;;5070461;28;20474;-74
2022/12/16 01:08:13;;;;;;;59.90;37.83;;;-0.90;99.90;;;;;;5068527;28;20049;-74
2022/12/16 01:10:38;;;;;;;60.45;36.45;;;-0.90;99.90;;;;;;5068148;28;20047;-74
2022/12/16 01:13:04;;;;;;;54.97;36.85;;;-0.90;99.90;;;;;;5056325;28;20056;-74
2022/12/16 01:15:29;;;;;;;56.40;37.92;;;-0.90;99.90;;;;;;5078247;28;20048;-74
2022/12/16 01:17:55;;;;;;;58.70;39.58;;;-1.00;99.90;;;;;;5078818;28;20765;-74
2022/12/16 01:20:21;;;;;;;54.88;36.90;;;-0.90;99.90;;;;;;5072102;28;20036;-74
2022/12/16 01:22:47;;;;;;;60.47;37.28;;;-1.00;99.90;;;;;;5079182;28;20076;-75
2022/12/16 01:25:12;;;;;;;59.60;37.65;;;-1.00;99.90;;;;;;5032936;28;20383;-76
2022/12/16 01:27:38;;;;;;;57.42;37.80;;;-1.00;99.90;;;;;;5061163;28;20120;-76
2022/12/16 01:30:05;;;;;;;63.45;38.50;;;-1.00;99.90;;;;;;5075695;28;20040;-77
2022/12/16 01:32:30;;;;;;;60.17;38.35;;;-1.00;99.90;;;;;;5060932;28;20054;-76
2022/12/16 01:34:56;;;;;;;60.13;39.42;;;-1.00;99.90;;;;;;5061252;28;20121;-76
2022/12/16 01:37:23;;;;;;;59.17;38.10;;;-0.90;99.90;;;;;;5073423;28;20494;-76
2022/12/16 01:39:49;;;;;;;62.22;38.53;;;-1.00;99.90;;;;;;5078414;28;20052;-76
2022/12/16 01:42:18;;;;;;;59.40;38.15;;;-0.90;99.90;;;;;;5074910;28;20045;-76
2022/12/16 01:44:46;;;;;;;61.13;38.95;;;-0.90;99.90;;;;;;5078323;28;20051;-76
2022/12/16 01:47:19;;;;;;;58.45;38.10;;;-1.00;99.90;;;;;;5076983;28;20406;-76
2022/12/16 01:50:06;;;;;;;55.10;36.97;;;-1.00;99.90;;;;;;5071073;28;20416;-76
2022/12/16 01:52:38;;;;;;;60.60;38.83;;;-1.00;99.90;;;;;;5074066;28;20126;-76
2022/12/16 01:55:14;;;;;;;62.20;37.42;;;-1.10;99.90;;;;;;5078103;28;20075;-76
2022/12/16 01:58:06;;;;;;;56.58;37.05;;;-1.10;99.90;;;;;;5063395;28;20044;-76
2022/12/16 02:00:33;;;;;;;55.90;36.88;;;-1.00;99.90;;;;;;5059829;28;20121;-76
2022/12/16 02:02:59;;;;;;;62.90;39.13;;;-1.10;99.90;;;;;;5078755;28;20041;-75
2022/12/16 02:05:26;;;;;;;60.03;39.25;;;-1.10;99.90;;;;;;5078344;28;20052;-76
2022/12/16 02:08:09;;;;;;;57.95;39.40;;;-1.00;99.90;;;;;;5079008;28;20227;-76
2022/12/16 02:10:38;;;;;;;59.92;38.78;;;-1.10;99.90;;;;;;5074712;28;20052;-76
2022/12/16 02:13:27;;;;;;;65.85;40.00;;;-1.10;99.90;;;;;;5060259;28;20052;-76
2022/12/16 02:16:17;;;;;;;59.65;38.35;;;-1.00;99.90;;;;;;5056799;28;20040;-76
2022/12/16 02:18:51;;;;;;;64.18;40.28;;;-1.00;99.90;;;;;;5058766;28;20037;-76
2022/12/16 02:21:38;;;;;;;64.85;39.80;;;-1.00;99.90;;;;;;5061578;28;20047;-76
2022/12/16 02:24:15;;;;;;;63.58;40.40;;;-1.10;99.90;;;;;;5048901;28;20379;-76
2022/12/16 02:27:16;;;;;;;68.10;39.90;;;-1.10;99.90;;;;;;5072924;28;20434;-76
2022/12/16 02:30:23;;;;;;;61.70;39.25;;;-1.10;99.90;;;;;;5015061;28;20090;-76
2022/12/16 02:33:03;;;;;;;62.50;38.90;;;-1.10;99.90;;;;;;5020216;28;20052;-77
2022/12/16 02:36:01;;;;;;;64.82;40.10;;;-1.10;99.90;;;;;;5066238;28;20044;-77
2022/12/16 02:38:42;;;;;;;65.97;40.30;;;-1.10;99.90;;;;;;5073681;28;20127;-77
2022/12/16 02:41:20;;;;;;;64.50;41.55;;;-1.10;99.90;;;;;;5075109;28;20044;-77
2022/12/16 02:43:52;;;;;;;65.95;39.67;;;-1.10;99.90;;;;;;5073384;28;20045;-77
2022/12/16 02:46:20;;;;;;;64.45;41.13;;;-1.10;99.90;;;;;;5055804;28;20040;-77
2022/12/16 02:48:46;;;;;;;62.33;40.80;;;-1.10;99.90;;;;;;5055947;28;20049;-77
2022/12/16 02:51:12;;;;;;;67.85;42.00;;;-1.10;99.90;;;;;;5054829;28;20041;-77
2022/12/16 02:53:40;;;;;;;67.40;41.67;;;-1.10;99.90;;;;;;5066054;28;20447;-77
2022/12/16 02:56:19;;;;;;;69.68;40.55;;;-1.10;99.90;;;;;;5055451;28;20032;-77
2022/12/16 02:59:17;;;;;;;65.18;42.10;;;-1.10;99.90;;;;;;5056170;28;20123;-75
2022/12/16 03:01:49;;;;;;;61.65;39.83;;;-1.10;99.90;;;;;;5038520;28;20094;-75
2022/12/16 03:04:24;;;;;;;62.47;40.33;;;-1.10;99.90;;;;;;5054005;28;20512;-75
2022/12/16 03:06:53;;;;;;;64.00;40.83;;;-1.00;99.90;;;;;;5072744;28;20546;-75
2022/12/16 03:09:23;;;;;;;67.32;41.03;;;-1.10;99.90;;;;;;5072506;28;20040;-75
2022/12/16 03:11:51;;;;;;;66.32;41.47;;;-1.10;99.90;;;;;;5072842;28;20055;-75
2022/12/16 03:14:19;;;;;;;67.95;41.60;;;-1.00;99.90;;;;;;5066388;28;20119;-75
2022/12/16 03:16:46;;;;;;;65.10;40.67;;;-1.00;99.90;;;;;;5063682;28;20041;-75
2022/12/16 03:19:13;;;;;;;65.38;40.88;;;-1.00;99.90;;;;;;5054268;28;20052;-76
2022/12/16 03:21:49;;;;;;;65.57;40.50;;;-1.10;99.90;;;;;;5072464;28;20414;-75
2022/12/16 03:24:16;;;;;;;63.08;40.65;;;-1.10;99.90;;;;;;5060789;28;20418;-75
2022/12/16 03:27:04;;;;;;;69.20;40.92;;;-1.00;99.90;;;;;;5037710;28;20252;-75
2022/12/16 03:29:35;;;;;;;66.30;40.28;;;-1.10;99.90;;;;;;5061285;28;20120;-75
2022/12/16 03:32:07;;;;;;;61.92;42.38;;;-1.00;99.90;;;;;;5070906;28;20056;-75
2022/12/16 03:34:38;;;;;;;64.30;40.88;;;-1.10;99.90;;;;;;5072839;28;20051;-75
2022/12/16 03:37:07;;;;;;;66.57;41.58;;;-1.10;99.90;;;;;;5073397;28;20151;-75
2022/12/16 03:39:40;;;;;;;65.38;41.53;;;-1.10;99.90;;;;;;5071466;28;20064;-75
2022/12/16 03:42:07;;;;;;;65.97;41.72;;;-1.10;99.90;;;;;;5070057;28;20105;-75
2022/12/16 03:44:34;;;;;;;62.28;40.15;;;-1.10;99.90;;;;;;5071845;28;20037;-75
2022/12/16 03:47:00;;;;;;;64.50;39.85;;;-1.10;99.90;;;;;;5071928;28;20115;-75
2022/12/16 03:49:26;;;;;;;62.83;39.78;;;-1.10;99.90;;;;;;5072062;28;20127;-75
2022/12/16 03:51:53;;;;;;;60.38;40.95;;;-1.10;99.90;;;;;;5068849;28;20410;-75
2022/12/16 03:54:20;;;;;;;63.33;40.70;;;-1.10;99.90;;;;;;5066054;28;20097;-74
2022/12/16 03:56:46;;;;;;;62.28;40.63;;;-1.10;99.90;;;;;;5071564;28;20052;-75
2022/12/16 03:59:12;;;;;;;65.90;42.33;;;-1.10;99.90;;;;;;5054746;28;20052;-77
2022/12/16 04:01:38;;;;;;;69.95;41.63;;;-1.10;99.90;;;;;;5072419;28;20041;-77
2022/12/16 04:04:04;;;;;;;67.03;41.92;;;-1.10;99.90;;;;;;5070414;28;20040;-77
2022/12/16 04:06:30;;;;;;;64.00;41.20;;;-1.10;99.90;;;;;;5038626;28;20044;-76
2022/12/16 04:08:55;;;;;;;66.68;42.35;;;-1.10;99.90;;;;;;5067359;28;20058;-76
2022/12/16 04:25:27;;;;;;;61.03;40.40;;;-1.00;99.90;;;;;;5072516;28;20418;-76
2022/12/16 04:27:52;;;;;;;65.18;41.08;;;-1.00;99.90;;;;;;5059795;28;20081;-76
2022/12/16 04:30:20;;;;;;;68.95;42.78;;;-1.00;99.90;;;;;;5075830;28;20084;-76
